Hong Kong International Airport
VHHH : now visible

Airfield :











YOU CAN JOIN US ON...

 
LOGIN :

Register | Disclaimer

   EN    FR    IT 

 









Legend :    VFR   Marginal VFR   IFR   Intensive IFR   Very Intensive IFR
Visi :
Ceiling :
>= 8 km
>= 3000ft
5 to 8 km
1000 to 3000 ft
1500m to 5 km
500 to 1000 ft
800 to 1500m
200 to 500 ft
< 800m
< 200 ft
Symbols :   Thunderstorms  Fog  Heavy snow  Heavy precipitations  Wind > 20 kt







- Airport Elevation : 28 ft
- IATA code : HKG


VHHH - Hong Kong International

CURRENT METAR :
  • 260930Z 13011KT 9999 FEW015 SCT030 28/23 Q1006 TEMPO 2500 TSRA SHRA FEW008CB SCT015 BKN040

EXPIRED METARs :
  • 260900Z 03008KT 9999 FEW015 SCT030 29/23 Q1006 TEMPO 2500 TSRA SHRA FEW008CB SCT015 BKN040
  • 260842Z 05010KT 020V090 9999 FEW015 29/23 Q1005 TEMPO 2500 TSRA SHRA FEW008CB SCT015 BKN040
  • 260830Z 13009KT 040V200 9999 FEW015 29/23 Q1005 TEMPO 2500 TSRA SHRA FEW008CB SCT015 BKN040
  • 260800Z 15006KT 110V220 9999 FEW015 28/23 Q1005 TEMPO 2500 TSRA SHRA FEW008CB SCT015 BKN040
  • 260730Z 07006KT 040V120 9999 FEW012 SCT030 28/23 Q1006 TEMPO 2500 TSRA SHRA FEW008CB SCT015 BKN040
  • 260700Z 06011KT 9999 FEW010 SCT030 28/24 Q1006 TEMPO 2500 TSRA SHRA FEW008CB SCT015 BKN040

TAF TAF VHHH
Valid from the 26 at 06:00 until the 27 at 12:00 UTC


260500Z 2606/2712 14010KT 8000 FEW010 SCT024 TX28/2606Z TX29/2706Z TN25/2622Z
TEMPO 2608/2612 24015G25KT 2500 TSRA SHRA FEW008CB SCT015 BKN040
TEMPO 2612/2622 VRB05KT 3500 SHRA FEW010CB SCT020
TEMPO 2622/2704 24015G25KT 2500 TSRA SHRA FEW008CB SCT015 BKN040
VHHK FIR / Asia



MET'MAP, your aeronautical weather chart ! - Copyright ORBIFLY December 2007 - Disclaimer

ORBIFLY MET'MAP TEAM :

Programming & Development : Alexandra Zaïnal
Concept & Development : Baudouin d'Aumeries
Co-Development & Prog : Marc-Olivier Méhu
Technical & hardware support : Manuel Goepfert

Contact : metmap@orbifly.com




SOURCES & CREDITS :

   NOAA       Earth
Advisory